NEODyS-2

Near Earth Objects - Dynamic Site
NEODyS ∴ Observatories ∴ Site G58 ∴ Obs & residuals
Contact »
G58  ▹ 
OBSERVATIONS AND RESIDUALS

G58-Chabot Space and Science Center, Oakland

Detections | Residuals | Detections & Residuals

[1-200] [201-400] [401-600] [601-800] [801-1000] [1001-1200] [1201-1400] [1401-1600] [1601-1779]

Designation T Tech N Date Right Ascension Declination Apparent Magnitude Star Catalog Site code χ Used A Used M
yr-mo-day precision hr:min:sec precision rms F bias residual deg min sec precision rms F bias residual mag/col rms residual
2011HO4 O C K 2011-05-05.18415 1.000E-05 12:18:32.930 1.500E-01 1.000 F 0.000 -0.592 +08° 23' 11.60" 1.000E-01 1.000 F 0.000 -0.261 19.6 R 0.70 -0.50 t G58 0.65 Yes Yes
2011HO4 O C K 2011-05-05.19121 1.000E-05 12:18:33.790 1.500E-01 1.000 F 0.000 0.303 +08° 23' 34.30" 1.000E-01 1.000 F 0.000 -0.178 20.4 R 0.70 0.30 t G58 0.35 Yes Yes
2011HO4 O C K 2011-05-05.19853 1.000E-05 12:18:34.590 1.500E-01 1.000 F 0.000 -0.119 +08° 23' 57.80" 1.000E-01 1.000 F 0.000 -0.115 20.6 R 0.70 0.50 t G58 0.17 Yes Yes
2011GZ54 O C K 2011-05-05.21173 1.000E-05 12:25:16.780 1.500E-01 1.000 F 0.000 0.214 +03° 23' 56.40" 1.000E-01 1.000 F 0.000 0.272 19.4 R 0.70 -0.19 t G58 0.35 Yes Yes
2011GZ54 O C K 2011-05-05.21966 1.000E-05 12:25:17.580 1.500E-01 1.000 F 0.000 -0.091 +03° 24' 19.10" 1.000E-01 1.000 F 0.000 0.450 18.9 R 0.70 -0.69 t G58 0.46 Yes Yes
2011GZ54 O C K 2011-05-05.22690 1.000E-05 12:25:18.340 1.500E-01 1.000 F 0.000 0.082 +03° 24' 39.20" 1.000E-01 1.000 F 0.000 -0.003 19.4 R 0.70 -0.20 t G58 0.08 Yes Yes
2011JE1 O C K 2011-05-05.24755 1.000E-05 13:07:00.850 1.500E-01 1.000 F 0.000 -0.034 +09° 13' 08.10" 1.000E-01 1.000 F 0.000 0.064 19.6 R 0.70 -0.21 t G58 0.07 Yes Yes
2011JE1 O C K 2011-05-05.25307 1.000E-05 13:07:01.470 1.500E-01 1.000 F 0.000 0.197 +09° 13' 40.10" 1.000E-01 1.000 F 0.000 -0.072 19.7 R 0.70 -0.12 t G58 0.21 Yes Yes
2011JE1 O C K 2011-05-05.25859 1.000E-05 13:07:02.070 1.500E-01 1.000 F 0.000 0.136 +09° 14' 12.50" 1.000E-01 1.000 F 0.000 0.210 19.4 R 0.70 -0.42 t G58 0.25 Yes Yes
2011GD68 O C K 2011-05-05.28295 1.000E-05 13:16:07.370 1.500E-01 1.000 F 0.000 0.429 +50° 11' 03.20" 1.000E-01 1.000 F 0.000 0.283 20.3 R 0.70 -0.21 t G58 0.52 Yes Yes
2011GD68 O C K 2011-05-05.29191 1.000E-05 13:16:06.440 1.500E-01 1.000 F 0.000 -0.536 +50° 10' 48.20" 1.000E-01 1.000 F 0.000 0.212 20.1 R 0.70 -0.41 t G58 0.58 Yes Yes
2011GD68 O C K 2011-05-05.29874 1.000E-05 13:16:05.820 1.500E-01 1.000 F 0.000 -0.422 +50° 10' 37.00" 1.000E-01 1.000 F 0.000 0.401 19.2 R 0.70 -1.31 t G58 0.58 Yes Yes
2011ME O C K 2011-07-03.31802 1.000E-05 15:32:03.370 1.500E-01 1.000 F 0.000 -0.155 +57° 39' 13.90" 1.000E-01 1.000 F 0.000 0.161 19.2 R 0.70 -0.20 t G58 0.22 Yes Yes
2011ME O C K 2011-07-03.32099 1.000E-05 15:32:00.830 1.500E-01 1.000 F 0.000 0.152 +57° 39' 26.20" 1.000E-01 1.000 F 0.000 -0.057 19.1 R 0.70 -0.30 t G58 0.16 Yes Yes
2011ME O C K 2011-07-03.32395 1.000E-05 15:31:58.250 1.500E-01 1.000 F 0.000 0.065 +57° 39' 39.00" 1.000E-01 1.000 F 0.000 0.276 19.4 R 0.70 0.00 t G58 0.29 Yes Yes
2000FL10 O C 2011-07-03.33367 1.000E-05 16:39:47.430 1.500E-01 1.000 F 0.000 -0.064 +25° 17' 31.50" 1.000E-01 1.000 F 0.000 0.024 19.0 R 0.70 -0.90 t G58 0.07 Yes Yes
2000FL10 O C 2011-07-03.34372 1.000E-05 16:39:46.760 1.500E-01 1.000 F 0.000 0.078 +25° 17' 26.60" 1.000E-01 1.000 F 0.000 0.263 19.1 R 0.70 -0.80 t G58 0.27 Yes Yes
2000FL10 O C 2011-07-03.35372 1.000E-05 16:39:46.100 1.500E-01 1.000 F 0.000 0.296 +25° 17' 21.30" 1.000E-01 1.000 F 0.000 0.087 19.3 R 0.70 -0.60 t G58 0.31 Yes Yes
2000FL10 O C 2011-07-03.35975 1.000E-05 16:39:45.690 1.500E-01 1.000 F 0.000 0.257 +25° 17' 18.70" 1.000E-01 1.000 F 0.000 0.581 18.7 R 0.70 -1.20 t G58 0.64 Yes Yes
2011ND O C K 2011-07-04.23474 1.000E-05 16:18:34.960 1.500E-01 1.000 F 0.000 -0.373 -01° 52' 57.60" 1.000E-01 1.000 F 0.000 -0.055 t G58 0.38 Yes No
2011ND O C K 2011-07-04.24570 1.000E-05 16:18:36.050 1.500E-01 1.000 F 0.000 0.243 -01° 53' 10.10" 1.000E-01 1.000 F 0.000 -0.041 20.2 R 0.70 -0.16 t G58 0.25 Yes Yes
2011ND O C K 2011-07-04.25949 1.000E-05 16:18:37.340 1.500E-01 1.000 F 0.000 -0.231 -01° 53' 25.90" 1.000E-01 1.000 F 0.000 -0.093 19.9 R 0.70 -0.46 t G58 0.25 Yes Yes
2011ND O C K 2011-07-04.26629 1.000E-05 16:18:38.020 1.500E-01 1.000 F 0.000 0.177 -01° 53' 33.30" 1.000E-01 1.000 F 0.000 0.273 20.2 R 0.70 -0.16 t G58 0.33 Yes Yes
Huma O C 2011-07-04.29412 1.000E-05 20:00:22.600 1.500E-01 1.118 F 0.000 -0.140 +45° 32' 18.00" 1.000E-01 1.118 F 0.000 0.014 16.3 R 0.70 0.10 t G58 0.13 Yes Yes
Huma O C 2011-07-04.29625 1.000E-05 20:00:22.980 1.500E-01 1.118 F 0.000 -0.255 +45° 32' 26.70" 1.000E-01 1.118 F 0.000 -0.040 16.2 R 0.70 0.00 t G58 0.23 Yes Yes
Huma O C 2011-07-04.29833 1.000E-05 20:00:23.370 1.500E-01 1.118 F 0.000 -0.164 +45° 32' 35.20" 1.000E-01 1.118 F 0.000 -0.086 16.2 R 0.70 0.00 t G58 0.17 Yes Yes
Huma O C 2011-07-04.30042 1.000E-05 20:00:23.750 1.500E-01 1.118 F 0.000 -0.195 +45° 32' 43.90" 1.000E-01 1.118 F 0.000 0.033 16.2 R 0.70 0.00 t G58 0.18 Yes Yes
Huma O C 2011-07-04.30250 1.000E-05 20:00:24.130 1.500E-01 1.118 F 0.000 -0.203 +45° 32' 52.40" 1.000E-01 1.118 F 0.000 -0.004 16.2 R 0.70 0.00 t G58 0.18 Yes Yes
2007RT9 O C K 2011-07-04.31388 1.000E-05 20:09:04.460 1.500E-01 1.000 F 0.000 -0.699 +50° 23' 30.30" 1.000E-01 1.000 F 0.000 0.055 19.6 R 0.70 0.61 t G58 0.71 Yes Yes
2007RT9 O C K 2011-07-04.31562 1.000E-05 20:09:04.160 1.500E-01 1.000 F 0.000 -0.168 +50° 23' 23.40" 1.000E-01 1.000 F 0.000 -0.104 19.6 R 0.70 0.61 t G58 0.20 Yes Yes
2007RT9 O C K 2011-07-04.32388 1.000E-05 20:09:02.510 1.500E-01 1.000 F 0.000 0.205 +50° 22' 51.00" 1.000E-01 1.000 F 0.000 -0.484 19.5 R 0.70 0.51 t G58 0.53 Yes Yes
2006HR29 O C K 2011-07-21.21160 1.000E-05 17:28:14.730 1.500E-01 1.000 F 0.000 -0.090 +16° 29' 27.50" 1.000E-01 1.000 F 0.000 -0.002 19.3 R 0.70 -0.13 t G58 0.09 Yes Yes
2006HR29 O C K 2011-07-21.21909 1.000E-05 17:28:13.500 1.500E-01 1.000 F 0.000 0.022 +16° 29' 27.70" 1.000E-01 1.000 F 0.000 -0.078 19.2 R 0.70 -0.23 t G58 0.08 Yes Yes
2006HR29 O C K 2011-07-21.22557 1.000E-05 17:28:12.460 1.500E-01 1.000 F 0.000 0.468 +16° 29' 27.90" 1.000E-01 1.000 F 0.000 -0.101 19.6 R 0.70 0.17 t G58 0.48 Yes Yes
1999TY16 O C K 2011-07-21.26381 1.000E-05 18:26:27.240 1.500E-01 1.000 F 0.000 -0.584 +74° 32' 09.50" 1.000E-01 1.000 F 0.000 -0.144 19.9 R 0.70 0.34 t G58 0.60 Yes Yes
1999TY16 O C K 2011-07-21.27311 1.000E-05 18:26:24.550 1.500E-01 1.000 F 0.000 0.026 +74° 32' 18.50" 1.000E-01 1.000 F 0.000 -0.067 19.5 R 0.70 -0.06 t G58 0.07 Yes Yes
1999TY16 O C K 2011-07-21.28203 1.000E-05 18:26:22.130 1.500E-01 1.000 F 0.000 1.254 +74° 32' 26.60" 1.000E-01 1.000 F 0.000 -0.506 19.7 R 0.70 0.14 t G58 1.35 Yes Yes
1999VT25 O C K 2011-07-28.19835 1.000E-05 16:01:06.390 1.500E-01 1.225 F 0.000 0.261 +10° 04' 00.90" 1.000E-01 1.225 F 0.000 0.076 19.6 R 0.70 0.04 t G58 0.23 Yes Yes
1999VT25 O C K 2011-07-28.20358 1.000E-05 16:01:09.370 1.500E-01 1.225 F 0.000 0.243 +10° 03' 34.10" 1.000E-01 1.225 F 0.000 0.188 19.7 R 0.70 0.14 t G58 0.25 Yes Yes
1999VT25 O C K 2011-07-28.20829 1.000E-05 16:01:12.070 1.500E-01 1.225 F 0.000 0.474 +10° 03' 09.70" 1.000E-01 1.225 F 0.000 0.023 19.6 R 0.70 0.04 t G58 0.39 Yes Yes
2010OF101 O C K 2011-07-28.21943 1.000E-05 18:41:32.400 1.500E-01 1.000 F 0.000 0.775 +52° 33' 52.90" 1.000E-01 1.000 F 0.000 0.327 19.8 R 0.70 -0.54 t G58 0.85 Yes Yes
1999VT25 O C K 2011-07-28.23006 1.000E-05 16:01:24.470 1.500E-01 1.225 F 0.000 0.407 +10° 01' 17.10" 1.000E-01 1.225 F 0.000 -0.579 19.4 R 0.70 -0.16 t G58 0.58 Yes Yes
1999VT25 O C K 2011-07-28.23432 1.000E-05 16:01:26.890 1.500E-01 1.225 F 0.000 0.302 +10° 00' 56.30" 1.000E-01 1.225 F 0.000 0.533 19.3 R 0.70 -0.26 t G58 0.51 Yes Yes
1999VT25 O C K 2011-07-28.23889 1.000E-05 16:01:29.500 1.500E-01 1.225 F 0.000 0.395 +10° 00' 32.50" 1.000E-01 1.225 F 0.000 0.238 19.2 R 0.70 -0.36 t G58 0.38 Yes Yes
2010OF101 O C K 2011-07-28.24986 1.000E-05 18:41:27.750 1.500E-01 1.000 F 0.000 0.611 +52° 33' 16.40" 1.000E-01 1.000 F 0.000 0.420 19.2 R 0.70 -1.14 t G58 0.75 Yes Yes
2010OF101 O C K 2011-07-28.25713 1.000E-05 18:41:26.540 1.500E-01 1.000 F 0.000 -0.326 +52° 33' 06.90" 1.000E-01 1.000 F 0.000 -0.273 20.0 R 0.70 -0.34 t G58 0.43 Yes Yes
2004RX10 O C K 2011-07-28.27413 1.000E-05 20:51:45.740 1.500E-01 1.000 F 0.000 -0.828 +09° 43' 33.40" 1.000E-01 1.000 F 0.000 -0.001 19.1 R 0.70 0.07 t G58 0.83 Yes Yes
2004RX10 O C K 2011-07-28.27910 1.000E-05 20:51:44.400 1.500E-01 1.000 F 0.000 -0.588 +09° 43' 22.40" 1.000E-01 1.000 F 0.000 0.874 19.2 R 0.70 0.17 t G58 1.06 Yes Yes
2004RX10 O C K 2011-07-28.28419 1.000E-05 20:51:43.010 1.500E-01 1.000 F 0.000 -0.587 +09° 43' 09.60" 1.000E-01 1.000 F 0.000 0.242 18.3 R 0.70 -0.73 t G58 0.64 Yes Yes
2011LX10 O C K 2011-09-29.12200 1.000E-05 21:53:44.280 1.500E-01 1.000 F 0.000 -0.141 +20° 18' 56.30" 1.000E-01 1.000 F 0.000 -0.199 19.4 R 0.70 -0.45 t G58 0.24 Yes Yes
2011LX10 O C K 2011-09-29.13146 1.000E-05 21:53:43.970 1.500E-01 1.000 F 0.000 0.105 +20° 18' 51.50" 1.000E-01 1.000 F 0.000 -0.130 19.6 R 0.70 -0.25 t G58 0.17 Yes Yes
2011LX10 O C K 2011-09-29.14304 1.000E-05 21:53:43.570 1.500E-01 1.000 F 0.000 0.127 +20° 18' 45.30" 1.000E-01 1.000 F 0.000 -0.362 19.7 R 0.70 -0.15 t G58 0.38 Yes Yes
1998VN O C K 2011-09-29.15341 1.000E-05 22:03:05.190 1.500E-01 1.000 F 0.000 0.458 +17° 06' 12.00" 1.000E-01 1.000 F 0.000 -0.102 20.1 R 0.70 -0.55 t G58 0.47 Yes Yes
1998VN O C K 2011-09-29.16273 1.000E-05 22:03:04.280 1.500E-01 1.000 F 0.000 -0.128 +17° 05' 58.70" 1.000E-01 1.000 F 0.000 -0.382 20.0 R 0.70 -0.65 t G58 0.41 Yes Yes
1998VN O C K 2011-09-29.17091 1.000E-05 22:03:03.510 1.500E-01 1.000 F 0.000 -0.218 +17° 05' 47.60" 1.000E-01 1.000 F 0.000 -0.044 19.9 R 0.70 -0.75 t G58 0.22 Yes Yes
2011RZ O C K 2011-09-29.18381 1.000E-05 22:43:24.080 1.500E-01 1.000 F 0.000 0.048 +33° 10' 17.70" 1.000E-01 1.000 F 0.000 0.293 20.3 R 0.70 -0.66 t G58 0.30 Yes Yes
2011RZ O C K 2011-09-29.19417 1.000E-05 22:43:22.860 1.500E-01 1.000 F 0.000 -0.389 +33° 10' 14.40" 1.000E-01 1.000 F 0.000 0.428 20.2 R 0.70 -0.76 t G58 0.58 Yes Yes
2011RZ O C K 2011-09-29.20554 1.000E-05 22:43:21.570 1.500E-01 1.000 F 0.000 -0.246 +33° 10' 10.60" 1.000E-01 1.000 F 0.000 0.416 20.5 R 0.70 -0.46 t G58 0.48 Yes Yes
2002SR41 O C K 2011-09-29.21745 1.000E-05 23:54:32.990 1.500E-01 1.000 F 0.005 -0.439 +42° 39' 34.70" 1.000E-01 1.000 F 0.245 -0.324 19.0 R 0.70 -0.30 o G58 0.55 Yes Yes
2002SR41 O C K 2011-09-29.22526 1.000E-05 23:54:30.980 1.500E-01 1.000 F 0.005 -0.223 +42° 39' 37.40" 1.000E-01 1.000 F 0.245 0.046 19.3 R 0.70 0.00 o G58 0.23 Yes Yes
2002SR41 O C K 2011-09-29.23074 1.000E-05 23:54:29.560 1.500E-01 1.000 F 0.005 -0.159 +42° 39' 38.90" 1.000E-01 1.000 F 0.245 -0.069 19.1 R 0.70 -0.20 o G58 0.17 Yes Yes
2002SR41 O C K 2011-09-29.23727 1.000E-05 23:54:27.850 1.500E-01 1.000 F 0.005 -0.260 +42° 39' 40.90" 1.000E-01 1.000 F 0.245 0.027 19.4 R 0.70 0.10 o G58 0.26 Yes Yes
2011SE97 O C K 2011-09-29.24818 1.000E-05 00:24:58.170 1.500E-01 1.000 F -0.182 -0.090 +04° 08' 34.80" 1.000E-01 1.000 F 0.221 0.060 19.9 R 0.70 -0.09 o G58 0.11 Yes Yes
2011SE97 O C K 2011-09-29.25459 1.000E-05 00:24:59.240 1.500E-01 1.000 F -0.182 -0.274 +04° 08' 35.50" 1.000E-01 1.000 F 0.221 0.424 19.7 R 0.70 -0.29 o G58 0.51 Yes Yes
2011SE97 O C K 2011-09-29.26205 1.000E-05 00:25:00.490 1.500E-01 1.000 F -0.182 -0.375 +04° 08' 35.40" 1.000E-01 1.000 F 0.221 -0.060 19.8 R 0.70 -0.19 o G58 0.38 Yes Yes
2006OU10 O C K 2011-09-29.27244 1.000E-05 00:58:54.030 1.500E-01 1.000 F -0.052 0.535 +57° 36' 25.50" 1.000E-01 1.000 F 0.244 -0.071 20.4 R 0.70 0.09 o G58 0.54 Yes Yes
2006OU10 O C K 2011-09-29.28138 1.000E-05 00:58:52.460 1.500E-01 1.000 F -0.052 0.173 +57° 36' 36.70" 1.000E-01 1.000 F 0.244 -0.081 19.7 R 0.70 -0.61 o G58 0.19 Yes Yes
2006OU10 O C K 2011-09-29.30755 1.000E-05 00:58:47.880 1.500E-01 1.000 F -0.052 -0.687 +57° 37' 09.20" 1.000E-01 1.000 F 0.244 -0.295 19.8 R 0.70 -0.51 o G58 0.75 Yes Yes
2011UC64 O C K 2011-10-23.31090 1.000E-05 00:47:50.820 1.500E-01 1.658 F 0.000 0.281 +24° 24' 17.00" 1.000E-01 1.658 F 0.000 0.337 17.6 R 0.70 -0.67 t G58 0.27 Yes Yes
2011UC64 O C K 2011-10-23.31182 1.000E-05 00:47:45.660 1.500E-01 1.658 F 0.000 -0.618 +24° 24' 16.80" 1.000E-01 1.658 F 0.000 0.231 17.9 R 0.70 -0.37 t G58 0.40 Yes Yes
2011UC64 O C K 2011-10-23.31275 1.000E-05 00:47:40.530 1.500E-01 1.658 F 0.000 -0.246 +24° 24' 16.50" 1.000E-01 1.658 F 0.000 0.049 18.0 R 0.70 -0.27 t G58 0.15 Yes Yes
2011UC64 O C K 2011-10-23.31367 1.000E-05 00:47:35.400 1.500E-01 1.658 F 0.000 -0.528 +24° 24' 16.40" 1.000E-01 1.658 F 0.000 0.087 17.8 R 0.70 -0.47 t G58 0.33 Yes Yes
2011UC64 O C K 2011-10-23.31460 1.000E-05 00:47:30.220 1.500E-01 1.658 F 0.000 -0.631 +24° 24' 15.90" 1.000E-01 1.658 F 0.000 -0.251 18.2 R 0.70 -0.07 t G58 0.41 Yes Yes
2011UC64 O C K 2011-10-23.31553 1.000E-05 00:47:25.110 1.500E-01 1.658 F 0.000 0.327 +24° 24' 15.90" 1.000E-01 1.658 F 0.000 -0.067 17.5 R 0.70 -0.77 t G58 0.20 Yes Yes
2011UV63 O C K 2011-10-23.33140 1.000E-05 01:10:16.040 1.500E-01 1.000 F 0.000 0.704 +17° 03' 26.50" 1.000E-01 1.000 F 0.000 -0.382 20.3 R 0.70 -0.12 t G58 0.80 Yes Yes
2011UV63 O C K 2011-10-23.34015 1.000E-05 01:10:14.480 1.500E-01 1.000 F 0.000 0.105 +17° 03' 29.40" 1.000E-01 1.000 F 0.000 -0.139 20.4 R 0.70 -0.02 t G58 0.18 Yes Yes
2011UV63 O C K 2011-10-23.35276 1.000E-05 01:10:12.350 1.500E-01 1.000 F 0.000 0.907 +17° 03' 32.60" 1.000E-01 1.000 F 0.000 -0.737 20.6 R 0.70 0.18 t G58 1.17 Yes Yes
2011UB64 O C K 2011-10-23.39116 1.000E-05 02:31:00.530 1.500E-01 1.000 F 0.000 -0.047 +09° 18' 11.20" 1.000E-01 1.000 F 0.000 -0.334 19.0 R 0.70 -0.33 t G58 0.34 Yes Yes
2011UB64 O C K 2011-10-23.39465 1.000E-05 02:31:01.670 1.500E-01 1.000 F 0.000 -0.441 +09° 17' 56.60" 1.000E-01 1.000 F 0.000 -0.042 18.8 R 0.70 -0.53 t G58 0.45 Yes Yes
2011UB64 O C K 2011-10-23.39906 1.000E-05 02:31:03.160 1.500E-01 1.000 F 0.000 -0.218 +09° 17' 37.80" 1.000E-01 1.000 F 0.000 -0.017 19.2 R 0.70 -0.13 t G58 0.22 Yes Yes
2011UC64 O C K 2011-10-23.40883 1.000E-05 00:38:05.800 1.500E-01 1.658 F 0.000 -0.467 +24° 21' 55.00" 1.000E-01 1.658 F 0.000 0.232 17.4 R 0.70 -0.75 t G58 0.32 Yes Yes
2011UC64 O C K 2011-10-23.40967 1.000E-05 00:38:00.450 1.500E-01 1.658 F 0.000 0.185 +24° 21' 52.60" 1.000E-01 1.658 F 0.000 0.285 17.4 R 0.70 -0.74 t G58 0.21 Yes Yes
2011UC64 O C K 2011-10-23.41050 1.000E-05 00:37:55.120 1.500E-01 1.658 F 0.000 0.320 +24° 21' 49.80" 1.000E-01 1.658 F 0.000 -0.069 17.9 R 0.70 -0.24 t G58 0.21 Yes Yes
2011UC64 O C K 2011-10-23.41133 1.000E-05 00:37:49.810 1.500E-01 1.658 F 0.000 0.817 +24° 21' 47.30" 1.000E-01 1.658 F 0.000 -0.102 17.8 R 0.70 -0.34 t G58 0.52 Yes Yes
2011UC64 O C K 2011-10-23.41216 1.000E-05 00:37:44.420 1.500E-01 1.658 F 0.000 0.310 +24° 21' 44.90" 1.000E-01 1.658 F 0.000 -0.012 17.9 R 0.70 -0.24 t G58 0.19 Yes Yes
2011UB131 O C K 2011-10-27.10682 1.000E-05 23:31:18.480 1.500E-01 1.000 F 0.000 -0.001 +34° 24' 30.20" 1.000E-01 1.000 F 0.000 0.416 19.4 R 0.70 -0.04 t G58 0.42 Yes Yes
2011US91 O C K 2011-10-27.11638 1.000E-05 23:48:48.470 1.500E-01 1.000 F 0.000 0.058 +38° 30' 13.20" 1.000E-01 1.000 F 0.000 -0.113 19.1 R 0.70 -0.33 t G58 0.13 Yes Yes
2011US91 O C K 2011-10-27.12039 1.000E-05 23:48:46.640 1.500E-01 1.000 F 0.000 0.060 +38° 30' 21.10" 1.000E-01 1.000 F 0.000 0.040 19.4 R 0.70 -0.03 t G58 0.07 Yes Yes
2011US91 O C K 2011-10-27.12962 1.000E-05 23:48:42.410 1.500E-01 1.000 F 0.000 -0.111 +38° 30' 38.80" 1.000E-01 1.000 F 0.000 -0.024 19.3 R 0.70 -0.14 t G58 0.12 Yes Yes
2011UB131 O C K 2011-10-27.14339 1.000E-05 23:30:49.530 1.500E-01 1.000 F 0.000 -0.214 +34° 26' 32.20" 1.000E-01 1.000 F 0.000 -0.149 19.3 R 0.70 -0.14 t G58 0.26 Yes Yes
2011UB131 O C K 2011-10-27.14965 1.000E-05 23:30:44.550 1.500E-01 1.000 F 0.000 -0.340 +34° 26' 53.10" 1.000E-01 1.000 F 0.000 -0.133 19.4 R 0.70 -0.04 t G58 0.37 Yes Yes
2011UB131 O C K 2011-10-30.25769 1.000E-05 22:44:25.940 1.500E-01 1.000 F 0.000 -0.178 +37° 02' 30.30" 1.000E-01 1.000 F 0.000 -0.100 19.4 R 0.70 -0.02 t G58 0.21 Yes Yes
2011UB131 O C K 2011-10-30.26080 1.000E-05 22:44:22.740 1.500E-01 1.000 F 0.000 -0.211 +37° 02' 38.10" 1.000E-01 1.000 F 0.000 -0.090 19.3 R 0.70 -0.12 t G58 0.23 Yes Yes
2011UB131 O C K 2011-10-30.26451 1.000E-05 22:44:18.940 1.500E-01 1.000 F 0.000 -0.041 +37° 02' 47.30" 1.000E-01 1.000 F 0.000 -0.168 19.5 R 0.70 0.08 t G58 0.17 Yes Yes
2011US91 O C K 2011-10-30.27091 1.000E-05 23:28:49.620 1.500E-01 1.000 F 0.000 -0.165 +39° 44' 08.00" 1.000E-01 1.000 F 0.000 0.237 19.7 R 0.70 -0.18 t G58 0.30 Yes Yes
2011US91 O C K 2011-10-30.27765 1.000E-05 23:28:47.310 1.500E-01 1.000 F 0.000 -0.280 +39° 44' 14.60" 1.000E-01 1.000 F 0.000 0.080 19.4 R 0.70 -0.48 t G58 0.30 Yes Yes
2011US91 O C K 2011-10-30.28483 1.000E-05 23:28:44.890 1.500E-01 1.000 F 0.000 0.020 +39° 44' 21.60" 1.000E-01 1.000 F 0.000 -0.068 19.4 R 0.70 -0.48 t G58 0.07 Yes Yes
2011UD21 O C K 2011-10-30.29210 1.000E-05 00:52:38.730 1.500E-01 1.000 F 0.000 -0.079 +23° 38' 36.40" 1.000E-01 1.000 F 0.000 0.011 19.3 R 0.70 -0.52 t G58 0.08 Yes Yes
2011UD21 O C K 2011-10-30.30006 1.000E-05 00:52:34.150 1.500E-01 1.000 F 0.000 -0.374 +23° 38' 34.10" 1.000E-01 1.000 F 0.000 0.018 19.3 R 0.70 -0.53 t G58 0.38 Yes Yes
2011UD21 O C K 2011-10-30.30467 1.000E-05 00:52:31.570 1.500E-01 1.000 F 0.000 0.317 +23° 38' 32.40" 1.000E-01 1.000 F 0.000 -0.110 19.6 R 0.70 -0.23 t G58 0.34 Yes Yes
2011UZ63 O C K 2011-10-30.31219 1.000E-05 01:27:34.700 1.500E-01 1.000 F 0.000 0.257 +11° 18' 27.20" 1.000E-01 1.000 F 0.000 0.216 20.2 R 0.70 -0.18 t G58 0.35 Yes Yes
2011UZ63 O C K 2011-10-30.31956 1.000E-05 01:27:35.150 1.500E-01 1.000 F 0.000 -0.190 +11° 17' 54.20" 1.000E-01 1.000 F 0.000 0.101 19.9 R 0.70 -0.48 t G58 0.22 Yes Yes
2011UZ63 O C K 2011-10-30.32639 1.000E-05 01:27:35.600 1.500E-01 1.000 F 0.000 -0.127 +11° 17' 23.80" 1.000E-01 1.000 F 0.000 0.184 19.8 R 0.70 -0.58 t G58 0.23 Yes Yes
2011UA193 O C K 2011-10-30.33130 1.000E-05 02:57:17.580 1.500E-01 1.225 F 0.000 -0.203 +06° 50' 47.70" 1.000E-01 1.225 F 0.000 -0.085 17.5 R 0.70 -0.15 t G58 0.18 Yes Yes
2011UA193 O C K 2011-10-30.33245 1.000E-05 02:57:19.710 1.500E-01 1.225 F 0.000 -0.178 +06° 50' 26.10" 1.000E-01 1.225 F 0.000 0.035 17.7 R 0.70 0.05 t G58 0.15 Yes Yes
2011UA193 O C K 2011-10-30.33361 1.000E-05 02:57:21.870 1.500E-01 1.225 F 0.000 0.024 +06° 50' 04.00" 1.000E-01 1.225 F 0.000 -0.157 17.9 R 0.70 0.25 t G58 0.13 Yes Yes
2011UA193 O C K 2011-10-30.33477 1.000E-05 02:57:24.010 1.500E-01 1.225 F 0.000 -0.066 +06° 49' 42.20" 1.000E-01 1.225 F 0.000 -0.050 17.7 R 0.70 0.05 t G58 0.07 Yes Yes
2011UA193 O C K 2011-10-30.33593 1.000E-05 02:57:26.150 1.500E-01 1.225 F 0.000 -0.150 +06° 49' 20.30" 1.000E-01 1.225 F 0.000 -0.043 17.4 R 0.70 -0.25 t G58 0.13 Yes Yes
2011UA193 O C K 2011-10-30.33708 1.000E-05 02:57:28.310 1.500E-01 1.225 F 0.000 0.344 +06° 48' 58.30" 1.000E-01 1.225 F 0.000 -0.325 17.4 R 0.70 -0.25 t G58 0.39 Yes Yes
2011UY114 O C K 2011-10-30.34512 1.000E-05 01:26:20.250 1.500E-01 1.000 F 0.000 0.076 +23° 01' 06.00" 1.000E-01 1.000 F 0.000 0.140 19.8 R 0.70 -0.30 t G58 0.16 Yes Yes
2011UY114 O C K 2011-10-30.34969 1.000E-05 01:26:19.190 1.500E-01 1.000 F 0.000 0.403 +23° 01' 18.80" 1.000E-01 1.000 F 0.000 0.094 19.6 R 0.70 -0.50 t G58 0.42 Yes Yes
2011UY114 O C K 2011-10-30.35388 1.000E-05 01:26:18.200 1.500E-01 1.000 F 0.000 0.441 +23° 01' 30.70" 1.000E-01 1.000 F 0.000 0.230 19.7 R 0.70 -0.40 t G58 0.50 Yes Yes
2011UZ114 O C K 2011-10-30.35909 1.000E-05 02:05:07.070 1.500E-01 1.000 F 0.000 -0.060 +16° 13' 03.70" 1.000E-01 1.000 F 0.000 -0.286 19.5 R 0.70 -0.22 t G58 0.30 Yes Yes
2011UZ114 O C K 2011-10-30.36273 1.000E-05 02:05:08.470 1.500E-01 1.000 F 0.000 -0.103 +16° 13' 09.60" 1.000E-01 1.000 F 0.000 -0.126 19.3 R 0.70 -0.42 t G58 0.17 Yes Yes
2011UZ114 O C K 2011-10-30.36603 1.000E-05 02:05:09.760 1.500E-01 1.000 F 0.000 0.137 +16° 13' 15.00" 1.000E-01 1.000 F 0.000 0.082 19.5 R 0.70 -0.22 t G58 0.17 Yes Yes
2011UJ169 O C K 2011-10-30.37062 1.000E-05 02:29:53.600 1.500E-01 1.000 F 0.000 0.197 +16° 46' 24.50" 1.000E-01 1.000 F 0.000 0.117 19.1 R 0.70 0.43 t G58 0.23 Yes Yes
2011UJ169 O C K 2011-10-30.37273 1.000E-05 02:29:53.320 1.500E-01 1.000 F 0.000 0.028 +16° 46' 55.90" 1.000E-01 1.000 F 0.000 0.030 19.4 R 0.70 0.73 t G58 0.04 Yes Yes
2011UJ169 O C K 2011-10-30.37559 1.000E-05 02:29:52.950 1.500E-01 1.000 F 0.000 -0.074 +16° 47' 38.50" 1.000E-01 1.000 F 0.000 -0.035 19.2 R 0.70 0.53 t G58 0.08 Yes Yes
1998ME3 O C K 2011-10-30.38155 1.000E-05 02:48:25.110 1.500E-01 1.000 F 0.000 -0.404 +03° 02' 41.30" 1.000E-01 1.000 F 0.000 0.122 19.9 R 0.70 -0.60 t G58 0.43 Yes Yes
1998ME3 O C K 2011-10-30.38953 1.000E-05 02:48:24.390 1.500E-01 1.000 F 0.000 -0.533 +03° 02' 39.00" 1.000E-01 1.000 F 0.000 -0.004 19.8 R 0.70 -0.70 t G58 0.54 Yes Yes
1998ME3 O C K 2011-10-30.39874 1.000E-05 02:48:23.600 1.500E-01 1.000 F 0.000 -0.074 +03° 02' 36.60" 1.000E-01 1.000 F 0.000 0.104 20.0 R 0.70 -0.50 t G58 0.13 Yes Yes
2011UP63 O C K 2011-11-08.19056 1.000E-05 23:42:28.020 1.500E-01 1.225 F 0.000 -0.262 +51° 25' 33.50" 1.000E-01 1.225 F 0.000 0.254 t G58 0.30 Yes No
2011UP63 O C K 2011-11-08.19353 1.000E-05 23:42:25.350 1.500E-01 1.225 F 0.000 -0.106 +51° 25' 49.60" 1.000E-01 1.225 F 0.000 0.397 19.2 R 0.70 -0.26 t G58 0.34 Yes Yes
2011UP63 O C K 2011-11-08.19649 1.000E-05 23:42:22.710 1.500E-01 1.225 F 0.000 0.248 +51° 26' 05.80" 1.000E-01 1.225 F 0.000 0.727 t G58 0.63 Yes No
2011UP63 O C K 2011-11-08.20685 1.000E-05 23:42:13.300 1.500E-01 1.225 F 0.000 -0.096 +51° 27' 00.50" 1.000E-01 1.225 F 0.000 0.139 19.1 R 0.70 -0.36 t G58 0.14 Yes Yes
2011UP63 O C K 2011-11-08.20981 1.000E-05 23:42:10.620 1.500E-01 1.225 F 0.000 -0.116 +51° 27' 16.30" 1.000E-01 1.225 F 0.000 0.215 19.1 R 0.70 -0.36 t G58 0.20 Yes Yes
2011UP63 O C K 2011-11-08.21278 1.000E-05 23:42:07.930 1.500E-01 1.225 F 0.000 -0.146 +51° 27' 32.10" 1.000E-01 1.225 F 0.000 0.272 19.2 R 0.70 -0.26 t G58 0.25 Yes Yes
2011UV158 O C K 2011-11-08.22799 1.000E-05 03:41:18.430 1.500E-01 1.000 F 0.033 0.053 +39° 01' 32.70" 1.000E-01 1.000 F 0.049 -0.050 19.6 R 0.70 -0.54 u G58 0.07 Yes Yes
2011UV158 O C K 2011-11-08.23659 1.000E-05 03:41:18.430 1.500E-01 1.000 F 0.033 -0.118 +39° 01' 57.60" 1.000E-01 1.000 F 0.049 0.026 19.5 R 0.70 -0.64 u G58 0.12 Yes Yes
2011UV158 O C K 2011-11-08.24316 1.000E-05 03:41:18.440 1.500E-01 1.000 F 0.033 -0.091 +39° 02' 16.80" 1.000E-01 1.000 F 0.049 0.279 19.1 R 0.70 -1.04 u G58 0.29 Yes Yes
2005YU55 O C 2011-11-09.10868 1.000E-05 22:07:18.530 1.500E-01 1.871 F 0.000 4.060 +16° 01' 29.70" 1.000E-01 1.871 F 0.000 0.620 11.1 R 0.70 0.59 t G58 2.20 Yes Yes
2005YU55 O C 2011-11-09.10878 1.000E-05 22:07:22.570 1.500E-01 1.871 F 0.000 2.923 +16° 01' 41.20" 1.000E-01 1.871 F 0.000 0.385 11.0 R 0.70 0.49 t G58 1.58 Yes Yes
2005YU55 O C 2011-11-09.10886 1.000E-05 22:07:25.870 1.500E-01 1.871 F 0.000 3.005 +16° 01' 50.70" 1.000E-01 1.871 F 0.000 0.503 11.1 R 0.70 0.59 t G58 1.63 Yes Yes
2005YU55 O C 2011-11-09.11938 1.000E-05 22:14:32.990 1.500E-01 1.871 F 0.000 0.601 +16° 21' 36.60" 1.000E-01 1.871 F 0.000 0.037 11.2 R 0.70 0.71 t G58 0.32 Yes Yes
2005YU55 O C 2011-11-09.11947 1.000E-05 22:14:36.900 1.500E-01 1.871 F 0.000 5.001 +16° 21' 47.10" 1.000E-01 1.871 F 0.000 0.789 11.3 R 0.70 0.81 t G58 2.71 Yes Yes
2005YU55 O C 2011-11-09.11955 1.000E-05 22:14:40.120 1.500E-01 1.871 F 0.000 5.244 +16° 21' 55.80" 1.000E-01 1.871 F 0.000 0.829 11.3 R 0.70 0.81 t G58 2.84 Yes Yes
2005YU55 O C 2011-11-09.14513 1.000E-05 22:31:08.010 1.500E-01 1.871 F 0.000 2.271 +17° 03' 40.80" 1.000E-01 1.871 F 0.000 0.262 10.9 R 0.70 0.45 t G58 1.22 Yes Yes
2005YU55 O C 2011-11-09.14522 1.000E-05 22:31:11.640 1.500E-01 1.871 F 0.000 6.315 +17° 03' 49.60" 1.000E-01 1.871 F 0.000 1.141 10.9 R 0.70 0.45 t G58 3.43 No Yes
2005YU55 O C 2011-11-09.14530 1.000E-05 22:31:14.600 1.500E-01 1.871 F 0.000 6.096 +17° 03' 56.30" 1.000E-01 1.871 F 0.000 0.804 10.9 R 0.70 0.45 t G58 3.29 No Yes
2005YU55 O C 2011-11-09.15792 1.000E-05 22:38:54.910 1.500E-01 1.871 F 0.000 5.439 +17° 21' 27.70" 1.000E-01 1.871 F 0.000 0.637 11.1 R 0.70 0.66 t G58 2.93 Yes Yes
2005YU55 O C 2011-11-09.15800 1.000E-05 22:38:57.750 1.500E-01 1.871 F 0.000 5.135 +17° 21' 34.10" 1.000E-01 1.871 F 0.000 0.733 11.0 R 0.70 0.56 t G58 2.77 Yes Yes
2005YU55 O C 2011-11-09.15808 1.000E-05 22:39:00.620 1.500E-01 1.871 F 0.000 5.270 +17° 21' 40.20" 1.000E-01 1.871 F 0.000 0.533 11.1 R 0.70 0.66 t G58 2.83 Yes Yes
2005YU55 O C 2011-11-09.15816 1.000E-05 22:39:03.460 1.500E-01 1.871 F 0.000 4.986 +17° 21' 46.70" 1.000E-01 1.871 F 0.000 0.738 11.0 R 0.70 0.56 t G58 2.70 Yes Yes
2005YU55 O C 2011-11-09.15824 1.000E-05 22:39:06.310 1.500E-01 1.871 F 0.000 4.855 +17° 21' 53.10" 1.000E-01 1.871 F 0.000 0.847 11.2 R 0.70 0.76 t G58 2.64 Yes Yes
2011WN15 O C K 2011-12-22.16183 1.000E-05 04:41:45.840 1.500E-01 1.000 F 0.000 0.083 +43° 57' 39.20" 1.000E-01 1.000 F 0.000 -0.188 18.9 R 0.70 -0.10 t G58 0.21 Yes Yes
2011WN15 O C K 2011-12-22.16490 1.000E-05 04:41:44.580 1.500E-01 1.000 F 0.000 -0.092 +43° 57' 37.30" 1.000E-01 1.000 F 0.000 0.427 t G58 0.44 Yes No
2011WN15 O C K 2011-12-22.17122 1.000E-05 04:41:42.020 1.500E-01 1.000 F 0.000 -0.083 +43° 57' 31.70" 1.000E-01 1.000 F 0.000 0.017 19.0 R 0.70 0.00 t G58 0.08 Yes Yes
2011WS95 O C K 2011-12-22.18390 1.000E-05 04:44:56.040 1.500E-01 1.000 F 0.000 0.328 +03° 00' 50.60" 1.000E-01 1.000 F 0.000 -0.106 17.5 R 0.70 -1.10 t G58 0.36 Yes Yes
2011WS95 O C K 2011-12-22.18629 1.000E-05 04:44:57.390 1.500E-01 1.000 F 0.000 0.221 +03° 00' 29.20" 1.000E-01 1.000 F 0.000 -0.386 18.5 R 0.70 -0.10 t G58 0.46 Yes Yes
2011WS95 O C K 2011-12-22.18950 1.000E-05 04:44:59.130 1.500E-01 1.000 F 0.000 -0.998 +03° 00' 00.90" 1.000E-01 1.000 F 0.000 -0.298 18.6 R 0.70 0.00 t G58 1.09 Yes Yes
2011WP69 O C K 2011-12-22.20046 1.000E-05 05:41:17.560 1.500E-01 1.000 F 0.000 0.027 +37° 44' 55.10" 1.000E-01 1.000 F 0.000 0.399 19.2 R 0.70 0.03 t G58 0.41 Yes Yes
2011XD1 O C K 2011-12-22.21337 1.000E-05 06:15:26.650 1.500E-01 1.000 F 0.000 0.078 +23° 49' 11.30" 1.000E-01 1.000 F 0.000 0.227 16.8 R 0.70 -0.33 t G58 0.24 Yes Yes
2011XD1 O C K 2011-12-22.21605 1.000E-05 06:15:29.100 1.500E-01 1.000 F 0.000 0.023 +23° 49' 30.10" 1.000E-01 1.000 F 0.000 0.149 16.9 R 0.70 -0.23 t G58 0.15 Yes Yes
2011XD1 O C K 2011-12-22.21851 1.000E-05 06:15:31.360 1.500E-01 1.000 F 0.000 0.142 +23° 49' 47.30" 1.000E-01 1.000 F 0.000 0.027 16.7 R 0.70 -0.43 t G58 0.15 Yes Yes
2011WP69 O C K 2011-12-22.22651 1.000E-05 05:41:19.610 1.500E-01 1.000 F 0.000 -0.310 +37° 47' 32.70" 1.000E-01 1.000 F 0.000 0.154 19.5 R 0.70 0.32 t G58 0.35 Yes Yes
2011WP69 O C K 2011-12-22.23066 1.000E-05 05:41:19.930 1.500E-01 1.000 F 0.000 -0.361 +37° 47' 57.70" 1.000E-01 1.000 F 0.000 0.092 19.6 R 0.70 0.42 t G58 0.38 Yes Yes
2011WP69 O C K 2011-12-22.23452 1.000E-05 05:41:20.220 1.500E-01 1.000 F 0.000 -0.481 +37° 48' 20.90" 1.000E-01 1.000 F 0.000 0.003 19.7 R 0.70 0.52 t G58 0.49 Yes Yes
2012DN14 O C K 2012-03-04.32232 1.000E-05 11:09:47.310 1.500E-01 1.000 F 0.000 0.022 +00° 55' 03.50" 1.000E-01 1.000 F 0.000 0.178 19.3 R 0.70 0.25 t G58 0.18 Yes Yes
2012DN14 O C K 2012-03-04.32625 1.000E-05 11:09:48.270 1.500E-01 1.000 F 0.000 0.161 +00° 55' 23.60" 1.000E-01 1.000 F 0.000 -0.038 19.9 R 0.70 0.85 t G58 0.17 Yes Yes
2012DN14 O C K 2012-03-04.33093 1.000E-05 11:09:49.390 1.500E-01 1.000 F 0.000 -0.011 +00° 55' 48.30" 1.000E-01 1.000 F 0.000 0.466 19.5 R 0.70 0.45 t G58 0.47 Yes Yes
2012DN14 O C K 2012-03-04.33489 1.000E-05 11:09:50.350 1.500E-01 1.000 F 0.000 0.035 +00° 56' 08.80" 1.000E-01 1.000 F 0.000 0.490 19.3 R 0.70 0.25 t G58 0.50 Yes Yes
2012DH4 O C 2012-03-04.33920 1.000E-05 11:12:39.470 1.500E-01 1.000 F 0.000 0.017 -03° 18' 08.60" 1.000E-01 1.000 F 0.000 0.007 17.6 R 0.70 0.23 t G58 0.02 Yes Yes
2012DP8 O C K 2012-03-04.34468 1.000E-05 11:18:59.250 1.500E-01 1.000 F 0.000 0.060 +11° 27' 14.00" 1.000E-01 1.000 F 0.000 0.107 20.0 R 0.70 0.22 t G58 0.12 Yes Yes
2012DH4 O C 2012-03-04.34894 1.000E-05 11:12:40.450 1.500E-01 1.000 F 0.000 -0.211 -03° 17' 34.10" 1.000E-01 1.000 F 0.000 -0.097 17.6 R 0.70 0.23 t G58 0.23 Yes Yes
2012DP8 O C K 2012-03-04.35279 1.000E-05 11:18:57.750 1.500E-01 1.000 F 0.000 -0.745 +11° 27' 08.70" 1.000E-01 1.000 F 0.000 0.131 19.7 R 0.70 -0.08 t G58 0.76 Yes Yes
2012DH4 O C 2012-03-04.35602 1.000E-05 11:12:41.190 1.500E-01 1.000 F 0.000 0.032 -03° 17' 09.00" 1.000E-01 1.000 F 0.000 -0.180 17.3 R 0.70 -0.07 t G58 0.18 Yes Yes
2012DP8 O C K 2012-03-04.35950 1.000E-05 11:18:56.620 1.500E-01 1.000 F 0.000 0.224 +11° 27' 03.70" 1.000E-01 1.000 F 0.000 -0.459 20.2 R 0.70 0.42 t G58 0.51 Yes Yes
2012DZ32 O C K 2012-03-04.36641 1.000E-05 12:14:43.450 1.500E-01 1.000 F 0.000 1.066 +30° 41' 54.70" 1.000E-01 1.000 F 0.000 0.695 19.9 R 0.70 -0.19 t G58 1.28 Yes Yes
2012DW60 O C K 2012-03-04.37085 1.000E-05 12:30:08.800 1.500E-01 1.000 F 0.000 -1.550 +30° 35' 06.00" 1.000E-01 1.000 F 0.000 -0.246 20.2 R 0.70 0.55 t G58 1.58 Yes Yes
2012DZ32 O C K 2012-03-04.37642 1.000E-05 12:14:43.900 1.500E-01 1.000 F 0.000 0.538 +30° 41' 44.60" 1.000E-01 1.000 F 0.000 0.459 20.1 R 0.70 0.01 t G58 0.71 Yes Yes
2012DW60 O C K 2012-03-04.38270 1.000E-05 12:30:12.750 1.500E-01 1.000 F 0.000 1.088 +30° 34' 50.60" 1.000E-01 1.000 F 0.000 0.559 20.4 R 0.70 0.76 t G58 1.23 Yes Yes
2012DW60 O C K 2012-03-04.38880 1.000E-05 12:30:14.620 1.500E-01 1.000 F 0.000 0.388 +30° 34' 41.90" 1.000E-01 1.000 F 0.000 0.500 19.3 R 0.70 -0.34 t G58 0.64 Yes Yes
2012DZ32 O C K 2012-03-04.39443 1.000E-05 12:14:44.790 1.500E-01 1.000 F 0.000 0.663 +30° 41' 27.10" 1.000E-01 1.000 F 0.000 0.854 20.2 R 0.70 0.11 t G58 1.08 Yes Yes
2012GS5 O C K 2012-04-21.33438 1.000E-05 12:45:45.490 1.500E-01 1.000 F 0.000 0.587 +51° 53' 07.50" 1.000E-01 1.000 F 0.000 0.425 19.5 R 0.70 0.14 t G58 0.73 Yes Yes
2012GS5 O C K 2012-04-21.34019 1.000E-05 12:45:43.800 1.500E-01 1.000 F 0.000 -0.378 +51° 53' 18.60" 1.000E-01 1.000 F 0.000 -0.219 19.8 R 0.70 0.44 t G58 0.44 Yes Yes
2012GS5 O C K 2012-04-21.34672 1.000E-05 12:45:42.170 1.500E-01 1.000 F 0.000 1.030 +51° 53' 31.90" 1.000E-01 1.000 F 0.000 -0.102 19.7 R 0.70 0.34 t G58 1.04 Yes Yes
2012FC71 O C K 2012-04-21.35416 1.000E-05 13:02:17.460 1.500E-01 1.000 F 0.000 -0.726 +04° 52' 51.20" 1.000E-01 1.000 F 0.000 -0.001 20.0 R 0.70 -0.41 t G58 0.76 Yes Yes
2012FC71 O C K 2012-04-21.35824 1.000E-05 13:02:16.080 1.500E-01 1.000 F 0.000 -0.210 +04° 52' 43.00" 1.000E-01 1.000 F 0.000 0.844 20.7 R 0.70 0.29 t G58 0.90 Yes Yes
2012FC71 O C K 2012-04-21.36231 1.000E-05 13:02:14.700 1.500E-01 1.000 F 0.000 0.233 +04° 52' 33.60" 1.000E-01 1.000 F 0.000 0.472 19.9 R 0.70 -0.51 t G58 0.54 Yes Yes
2012HN O C K 2012-04-21.37181 1.000E-05 13:26:34.200 1.500E-01 1.000 F 0.000 0.341 +43° 19' 49.20" 1.000E-01 1.000 F 0.000 0.025 20.1 R 0.70 -0.08 t G58 0.38 Yes Yes
2012HN O C K 2012-04-21.37850 1.000E-05 13:26:34.900 1.500E-01 1.000 F 0.000 -0.298 +43° 20' 08.10" 1.000E-01 1.000 F 0.000 -0.403 20.1 R 0.70 -0.09 t G58 0.59 Yes Yes
2012HN O C K 2012-04-21.38577 1.000E-05 13:26:35.830 1.500E-01 1.000 F 0.000 0.804 +43° 20' 29.30" 1.000E-01 1.000 F 0.000 -0.076 20.8 R 0.70 0.61 t G58 0.89 Yes Yes
2012HW1 O C K 2012-04-21.39247 1.000E-05 15:20:54.540 1.500E-01 1.000 F 0.000 0.612 +10° 06' 06.40" 1.000E-01 1.000 F 0.000 0.154 19.5 R 0.70 -0.31 t G58 0.63 Yes Yes
2012HW1 O C K 2012-04-21.39553 1.000E-05 15:20:53.920 1.500E-01 1.000 F 0.000 -0.304 +10° 06' 23.30" 1.000E-01 1.000 F 0.000 0.456 19.5 R 0.70 -0.31 t G58 0.55 Yes Yes
2012HW1 O C K 2012-04-21.39859 1.000E-05 15:20:53.420 1.500E-01 1.000 F 0.000 0.554 +10° 06' 39.60" 1.000E-01 1.000 F 0.000 0.158 19.3 R 0.70 -0.51 t G58 0.57 Yes Yes
2012HK8 O C K 2012-04-21.40597 1.000E-05 14:40:12.260 1.500E-01 1.323 F 0.000 -0.185 -02° 48' 22.40" 1.000E-01 1.323 F 0.000 -0.313 18.4 R 0.70 0.31 t G58 0.28 Yes Yes
2012HK8 O C K 2012-04-21.40759 1.000E-05 14:40:12.520 1.500E-01 1.323 F 0.000 0.230 -02° 47' 29.00" 1.000E-01 1.323 F 0.000 -0.283 18.4 R 0.70 0.30 t G58 0.28 Yes Yes
2012HK8 O C K 2012-04-21.40921 1.000E-05 14:40:12.730 1.500E-01 1.323 F 0.000 -0.106 -02° 46' 35.90" 1.000E-01 1.323 F 0.000 -0.544 18.2 R 0.70 0.10 t G58 0.43 Yes Yes
2012HK8 O C K 2012-04-21.41083 1.000E-05 14:40:12.960 1.500E-01 1.323 F 0.000 -0.144 -02° 45' 42.70" 1.000E-01 1.323 F 0.000 -0.694 18.4 R 0.70 0.30 t G58 0.55 Yes Yes
2012HK8 O C K 2012-04-21.41245 1.000E-05 14:40:13.190 1.500E-01 1.323 F 0.000 -0.184 -02° 44' 49.00" 1.000E-01 1.323 F 0.000 -0.334 18.1 R 0.70 0.00 t G58 0.30 Yes Yes
2012HK8 O C K 2012-04-21.41407 1.000E-05 14:40:13.430 1.500E-01 1.323 F 0.000 -0.077 -02° 43' 55.70" 1.000E-01 1.323 F 0.000 -0.365 18.1 R 0.70 0.00 t G58 0.29 Yes Yes
2012HK8 O C K 2012-04-21.41528 1.000E-05 14:40:13.610 1.500E-01 1.323 F 0.000 0.013 -02° 43' 15.70" 1.000E-01 1.323 F 0.000 -0.191 18.0 R 0.70 -0.10 t G58 0.15 Yes Yes
2012HM8 O C K 2012-04-22.26734 1.000E-05 13:05:18.170 1.500E-01 1.000 F 0.000 -0.180 +13° 34' 37.20" 1.000E-01 1.000 F 0.000 0.257 19.8 R 0.70 -0.15 t G58 0.31 Yes Yes
2012HM8 O C K 2012-04-22.27259 1.000E-05 13:05:19.410 1.500E-01 1.000 F 0.000 0.322 +13° 34' 35.30" 1.000E-01 1.000 F 0.000 -0.002 19.7 R 0.70 -0.25 t G58 0.32 Yes Yes
2012HM8 O C K 2012-04-22.28357 1.000E-05 13:05:21.910 1.500E-01 1.000 F 0.000 0.016 +13° 34' 32.00" 1.000E-01 1.000 F 0.000 0.198 19.8 R 0.70 -0.15 t G58 0.20 Yes Yes
2012HK8 O C K 2012-04-22.36156 1.000E-05 14:42:59.640 1.500E-01 1.118 F 0.000 0.208 +05° 24' 15.20" 1.000E-01 1.118 F 0.000 0.114 18.7 R 0.70 0.25 t G58 0.21 Yes Yes
2012HK8 O C K 2012-04-22.36296 1.000E-05 14:42:59.800 1.500E-01 1.118 F 0.000 0.065 +05° 24' 55.20" 1.000E-01 1.118 F 0.000 -0.254 18.5 R 0.70 0.05 t G58 0.24 Yes Yes
2012HK8 O C K 2012-04-22.36434 1.000E-05 14:42:59.990 1.500E-01 1.118 F 0.000 0.406 +05° 25' 35.40" 1.000E-01 1.118 F 0.000 0.163 18.3 R 0.70 -0.15 t G58 0.39 Yes Yes
2012HK8 O C K 2012-04-22.36573 1.000E-05 14:43:00.150 1.500E-01 1.118 F 0.000 0.283 +05° 26' 15.40" 1.000E-01 1.118 F 0.000 0.102 18.8 R 0.70 0.35 t G58 0.27 Yes Yes
2012HK8 O C K 2012-04-22.36712 1.000E-05 14:43:00.310 1.500E-01 1.118 F 0.000 0.159 +05° 26' 55.30" 1.000E-01 1.118 F 0.000 -0.050 18.5 R 0.70 0.05 t G58 0.15 Yes Yes

[1-200] [201-400] [401-600] [601-800] [801-1000] [1001-1200] [1201-1400] [1401-1600] [1601-1779]